sensor_id;sensor_type;location;lat;lon;timestamp;P1;durP1;ratioP1;P2;durP2;ratioP2
32297;SDS011;18782;48.984;8.548;2023-04-06T00:01:52;8.15;;;4.53;;
32297;SDS011;18782;48.984;8.548;2023-04-06T00:04:20;8.25;;;4.72;;
32297;SDS011;18782;48.984;8.548;2023-04-06T00:06:49;7.95;;;4.40;;
32297;SDS011;18782;48.984;8.548;2023-04-06T00:09:16;8.68;;;4.82;;
32297;SDS011;18782;48.984;8.548;2023-04-06T00:11:44;9.18;;;4.65;;
32297;SDS011;18782;48.984;8.548;2023-04-06T00:14:12;6.55;;;4.70;;
32297;SDS011;18782;48.984;8.548;2023-04-06T00:16:40;8.52;;;4.63;;
32297;SDS011;18782;48.984;8.548;2023-04-06T00:19:08;8.88;;;5.60;;
32297;SDS011;18782;48.984;8.548;2023-04-06T00:21:36;6.10;;;4.40;;
32297;SDS011;18782;48.984;8.548;2023-04-06T00:24:05;7.32;;;4.50;;
32297;SDS011;18782;48.984;8.548;2023-04-06T00:26:33;8.60;;;5.07;;
32297;SDS011;18782;48.984;8.548;2023-04-06T00:29:01;7.88;;;4.90;;
32297;SDS011;18782;48.984;8.548;2023-04-06T00:31:28;9.93;;;5.18;;
32297;SDS011;18782;48.984;8.548;2023-04-06T00:33:57;9.18;;;5.00;;
32297;SDS011;18782;48.984;8.548;2023-04-06T00:36:25;8.15;;;5.13;;
32297;SDS011;18782;48.984;8.548;2023-04-06T00:38:53;8.30;;;5.00;;
32297;SDS011;18782;48.984;8.548;2023-04-06T00:41:22;10.60;;;4.82;;
32297;SDS011;18782;48.984;8.548;2023-04-06T00:43:50;9.35;;;5.28;;
32297;SDS011;18782;48.984;8.548;2023-04-06T00:46:18;9.93;;;5.25;;
32297;SDS011;18782;48.984;8.548;2023-04-06T00:48:46;8.77;;;4.85;;
32297;SDS011;18782;48.984;8.548;2023-04-06T00:51:14;7.30;;;5.20;;
32297;SDS011;18782;48.984;8.548;2023-04-06T00:53:42;9.45;;;5.28;;
32297;SDS011;18782;48.984;8.548;2023-04-06T00:56:11;9.60;;;5.40;;
32297;SDS011;18782;48.984;8.548;2023-04-06T00:58:52;7.93;;;4.93;;
32297;SDS011;18782;48.984;8.548;2023-04-06T01:01:20;7.15;;;4.65;;
32297;SDS011;18782;48.984;8.548;2023-04-06T01:03:50;13.50;;;6.03;;
32297;SDS011;18782;48.984;8.548;2023-04-06T01:06:19;12.10;;;6.15;;
32297;SDS011;18782;48.984;8.548;2023-04-06T01:08:56;7.60;;;4.28;;
32297;SDS011;18782;48.984;8.548;2023-04-06T01:11:25;8.25;;;5.15;;
32297;SDS011;18782;48.984;8.548;2023-04-06T01:13:54;8.25;;;5.13;;
32297;SDS011;18782;48.984;8.548;2023-04-06T01:16:30;7.78;;;4.85;;
32297;SDS011;18782;48.984;8.548;2023-04-06T01:19:19;7.00;;;4.90;;
32297;SDS011;18782;48.984;8.548;2023-04-06T01:21:52;7.90;;;4.93;;
32297;SDS011;18782;48.984;8.548;2023-04-06T01:24:41;8.20;;;5.00;;
32297;SDS011;18782;48.984;8.548;2023-04-06T01:27:13;8.50;;;4.78;;
32297;SDS011;18782;48.984;8.548;2023-04-06T01:29:47;6.78;;;4.30;;
32297;SDS011;18782;48.984;8.548;2023-04-06T01:32:24;9.15;;;5.18;;
32297;SDS011;18782;48.984;8.548;2023-04-06T01:34:52;9.73;;;4.97;;
32297;SDS011;18782;48.984;8.548;2023-04-06T01:37:21;10.27;;;4.80;;
32297;SDS011;18782;48.984;8.548;2023-04-06T01:39:53;8.30;;;4.38;;
32297;SDS011;18782;48.984;8.548;2023-04-06T01:42:37;6.95;;;4.35;;
32297;SDS011;18782;48.984;8.548;2023-04-06T01:45:06;5.95;;;4.03;;
32297;SDS011;18782;48.984;8.548;2023-04-06T01:47:35;6.03;;;4.20;;
32297;SDS011;18782;48.984;8.548;2023-04-06T01:50:04;8.73;;;4.50;;
32297;SDS011;18782;48.984;8.548;2023-04-06T01:52:38;6.93;;;4.70;;
32297;SDS011;18782;48.984;8.548;2023-04-06T01:55:08;7.28;;;4.30;;
32297;SDS011;18782;48.984;8.548;2023-04-06T01:57:54;7.32;;;4.38;;
32297;SDS011;18782;48.984;8.548;2023-04-06T02:00:31;8.43;;;4.25;;
32297;SDS011;18782;48.984;8.548;2023-04-06T02:03:00;8.82;;;4.32;;
32297;SDS011;18782;48.984;8.548;2023-04-06T02:05:30;7.45;;;4.35;;
32297;SDS011;18782;48.984;8.548;2023-04-06T02:08:00;7.22;;;3.78;;
32297;SDS011;18782;48.984;8.548;2023-04-06T02:10:34;6.70;;;4.20;;
32297;SDS011;18782;48.984;8.548;2023-04-06T02:13:10;10.18;;;4.85;;
32297;SDS011;18782;48.984;8.548;2023-04-06T02:15:43;8.45;;;4.78;;
32297;SDS011;18782;48.984;8.548;2023-04-06T02:18:11;7.07;;;4.60;;
32297;SDS011;18782;48.984;8.548;2023-04-06T02:20:39;8.05;;;4.78;;
32297;SDS011;18782;48.984;8.548;2023-04-06T02:23:08;7.28;;;4.75;;
32297;SDS011;18782;48.984;8.548;2023-04-06T02:25:37;7.53;;;4.70;;
32297;SDS011;18782;48.984;8.548;2023-04-06T02:28:04;8.10;;;3.92;;
32297;SDS011;18782;48.984;8.548;2023-04-06T02:30:32;7.28;;;4.10;;
32297;SDS011;18782;48.984;8.548;2023-04-06T02:33:01;7.75;;;4.70;;
32297;SDS011;18782;48.984;8.548;2023-04-06T02:35:37;6.93;;;4.07;;
32297;SDS011;18782;48.984;8.548;2023-04-06T02:38:06;6.28;;;4.20;;
32297;SDS011;18782;48.984;8.548;2023-04-06T02:40:33;6.70;;;3.88;;
32297;SDS011;18782;48.984;8.548;2023-04-06T02:43:14;6.28;;;3.75;;
32297;SDS011;18782;48.984;8.548;2023-04-06T02:45:44;6.57;;;3.95;;
32297;SDS011;18782;48.984;8.548;2023-04-06T02:48:13;7.38;;;4.13;;
32297;SDS011;18782;48.984;8.548;2023-04-06T02:50:41;6.25;;;4.10;;
32297;SDS011;18782;48.984;8.548;2023-04-06T02:53:08;5.57;;;3.90;;
32297;SDS011;18782;48.984;8.548;2023-04-06T02:55:38;6.82;;;4.32;;
32297;SDS011;18782;48.984;8.548;2023-04-06T02:58:06;7.03;;;3.92;;
32297;SDS011;18782;48.984;8.548;2023-04-06T03:00:44;5.82;;;3.63;;
32297;SDS011;18782;48.984;8.548;2023-04-06T03:03:11;6.85;;;4.10;;
32297;SDS011;18782;48.984;8.548;2023-04-06T03:05:41;6.57;;;4.00;;
32297;SDS011;18782;48.984;8.548;2023-04-06T03:08:10;7.03;;;3.75;;
32297;SDS011;18782;48.984;8.548;2023-04-06T03:10:42;6.07;;;3.90;;
32297;SDS011;18782;48.984;8.548;2023-04-06T03:13:11;6.30;;;3.55;;
32297;SDS011;18782;48.984;8.548;2023-04-06T03:15:52;7.75;;;3.70;;
32297;SDS011;18782;48.984;8.548;2023-04-06T03:18:21;5.72;;;3.72;;
32297;SDS011;18782;48.984;8.548;2023-04-06T03:20:51;7.18;;;3.38;;
32297;SDS011;18782;48.984;8.548;2023-04-06T03:23:24;6.28;;;3.63;;
32297;SDS011;18782;48.984;8.548;2023-04-06T03:25:56;7.47;;;3.75;;
32297;SDS011;18782;48.984;8.548;2023-04-06T03:28:24;7.35;;;3.92;;
32297;SDS011;18782;48.984;8.548;2023-04-06T03:30:57;8.95;;;4.20;;
32297;SDS011;18782;48.984;8.548;2023-04-06T03:36:28;6.40;;;3.33;;
32297;SDS011;18782;48.984;8.548;2023-04-06T03:38:57;5.80;;;3.63;;
32297;SDS011;18782;48.984;8.548;2023-04-06T03:41:25;6.78;;;3.92;;
32297;SDS011;18782;48.984;8.548;2023-04-06T03:44:01;6.00;;;3.58;;
32297;SDS011;18782;48.984;8.548;2023-04-06T03:46:30;7.32;;;4.05;;
32297;SDS011;18782;48.984;8.548;2023-04-06T03:48:58;4.72;;;3.33;;
32297;SDS011;18782;48.984;8.548;2023-04-06T03:51:27;7.50;;;3.92;;
32297;SDS011;18782;48.984;8.548;2023-04-06T03:53:54;7.20;;;3.78;;
32297;SDS011;18782;48.984;8.548;2023-04-06T03:56:22;8.25;;;3.92;;
32297;SDS011;18782;48.984;8.548;2023-04-06T04:06:21;5.68;;;3.53;;
32297;SDS011;18782;48.984;8.548;2023-04-06T04:08:49;6.22;;;3.50;;
32297;SDS011;18782;48.984;8.548;2023-04-06T04:11:17;6.03;;;3.60;;
32297;SDS011;18782;48.984;8.548;2023-04-06T04:13:49;5.23;;;3.53;;
32297;SDS011;18782;48.984;8.548;2023-04-06T04:16:17;6.13;;;3.88;;
32297;SDS011;18782;48.984;8.548;2023-04-06T04:18:44;5.97;;;3.60;;
32297;SDS011;18782;48.984;8.548;2023-04-06T04:21:14;6.47;;;3.40;;
32297;SDS011;18782;48.984;8.548;2023-04-06T04:23:43;6.43;;;3.80;;
32297;SDS011;18782;48.984;8.548;2023-04-06T04:26:11;6.53;;;3.67;;
32297;SDS011;18782;48.984;8.548;2023-04-06T04:28:39;6.30;;;3.75;;
32297;SDS011;18782;48.984;8.548;2023-04-06T04:31:07;7.35;;;4.07;;
32297;SDS011;18782;48.984;8.548;2023-04-06T04:33:34;7.82;;;3.97;;
32297;SDS011;18782;48.984;8.548;2023-04-06T04:36:08;6.85;;;4.25;;
32297;SDS011;18782;48.984;8.548;2023-04-06T04:38:40;7.07;;;4.00;;
32297;SDS011;18782;48.984;8.548;2023-04-06T04:41:09;7.03;;;4.10;;
32297;SDS011;18782;48.984;8.548;2023-04-06T04:43:40;10.27;;;4.38;;
32297;SDS011;18782;48.984;8.548;2023-04-06T04:46:09;6.90;;;4.05;;
32297;SDS011;18782;48.984;8.548;2023-04-06T04:48:39;7.40;;;4.15;;
32297;SDS011;18782;48.984;8.548;2023-04-06T04:51:07;7.55;;;4.10;;
32297;SDS011;18782;48.984;8.548;2023-04-06T04:54:10;6.15;;;3.80;;
32297;SDS011;18782;48.984;8.548;2023-04-06T04:56:41;7.32;;;4.18;;
32297;SDS011;18782;48.984;8.548;2023-04-06T04:59:22;5.95;;;4.15;;
32297;SDS011;18782;48.984;8.548;2023-04-06T05:01:58;6.85;;;3.90;;
32297;SDS011;18782;48.984;8.548;2023-04-06T05:04:38;8.15;;;4.10;;
32297;SDS011;18782;48.984;8.548;2023-04-06T05:07:09;6.78;;;4.20;;
32297;SDS011;18782;48.984;8.548;2023-04-06T05:09:39;5.40;;;3.70;;
32297;SDS011;18782;48.984;8.548;2023-04-06T05:12:10;5.80;;;4.00;;
32297;SDS011;18782;48.984;8.548;2023-04-06T05:14:49;5.80;;;3.65;;
32297;SDS011;18782;48.984;8.548;2023-04-06T05:17:18;6.05;;;3.45;;
32297;SDS011;18782;48.984;8.548;2023-04-06T05:19:46;6.43;;;4.03;;
32297;SDS011;18782;48.984;8.548;2023-04-06T05:22:20;7.00;;;4.22;;
32297;SDS011;18782;48.984;8.548;2023-04-06T05:24:57;5.43;;;3.63;;
32297;SDS011;18782;48.984;8.548;2023-04-06T05:27:26;5.40;;;3.60;;
32297;SDS011;18782;48.984;8.548;2023-04-06T05:29:54;14.88;;;7.95;;
32297;SDS011;18782;48.984;8.548;2023-04-06T05:32:25;9.90;;;6.07;;
32297;SDS011;18782;48.984;8.548;2023-04-06T05:34:54;5.68;;;3.65;;
32297;SDS011;18782;48.984;8.548;2023-04-06T05:37:22;5.60;;;4.00;;
32297;SDS011;18782;48.984;8.548;2023-04-06T05:39:50;7.38;;;4.38;;
32297;SDS011;18782;48.984;8.548;2023-04-06T05:42:19;11.90;;;5.75;;
32297;SDS011;18782;48.984;8.548;2023-04-06T05:44:53;6.22;;;3.38;;
32297;SDS011;18782;48.984;8.548;2023-04-06T05:47:21;7.20;;;3.90;;
32297;SDS011;18782;48.984;8.548;2023-04-06T05:49:57;7.75;;;3.83;;
32297;SDS011;18782;48.984;8.548;2023-04-06T05:52:31;5.05;;;3.40;;
32297;SDS011;18782;48.984;8.548;2023-04-06T05:54:59;6.70;;;4.35;;
32297;SDS011;18782;48.984;8.548;2023-04-06T05:57:27;8.00;;;4.90;;
32297;SDS011;18782;48.984;8.548;2023-04-06T05:59:57;7.38;;;4.65;;
32297;SDS011;18782;48.984;8.548;2023-04-06T06:02:37;6.57;;;4.40;;
32297;SDS011;18782;48.984;8.548;2023-04-06T06:05:07;13.98;;;5.85;;
32297;SDS011;18782;48.984;8.548;2023-04-06T06:07:37;10.63;;;5.07;;
32297;SDS011;18782;48.984;8.548;2023-04-06T06:10:05;6.93;;;4.72;;
32297;SDS011;18782;48.984;8.548;2023-04-06T06:12:35;7.53;;;4.53;;
32297;SDS011;18782;48.984;8.548;2023-04-06T06:15:06;10.88;;;6.50;;
32297;SDS011;18782;48.984;8.548;2023-04-06T06:17:38;13.38;;;7.18;;
32297;SDS011;18782;48.984;8.548;2023-04-06T06:20:06;12.82;;;6.95;;
32297;SDS011;18782;48.984;8.548;2023-04-06T06:22:35;9.73;;;5.40;;
32297;SDS011;18782;48.984;8.548;2023-04-06T06:25:04;8.93;;;5.32;;
32297;SDS011;18782;48.984;8.548;2023-04-06T06:27:32;8.30;;;5.10;;
32297;SDS011;18782;48.984;8.548;2023-04-06T06:30:04;9.75;;;4.53;;
32297;SDS011;18782;48.984;8.548;2023-04-06T06:32:38;9.65;;;5.10;;
32297;SDS011;18782;48.984;8.548;2023-04-06T06:35:06;6.60;;;4.47;;
32297;SDS011;18782;48.984;8.548;2023-04-06T06:37:34;8.90;;;5.32;;
32297;SDS011;18782;48.984;8.548;2023-04-06T06:40:03;8.13;;;4.47;;
32297;SDS011;18782;48.984;8.548;2023-04-06T06:42:33;8.18;;;4.70;;
32297;SDS011;18782;48.984;8.548;2023-04-06T06:45:10;6.75;;;4.50;;
32297;SDS011;18782;48.984;8.548;2023-04-06T06:47:39;6.80;;;4.15;;
32297;SDS011;18782;48.984;8.548;2023-04-06T06:50:10;6.05;;;4.18;;
32297;SDS011;18782;48.984;8.548;2023-04-06T06:52:37;7.82;;;4.68;;
32297;SDS011;18782;48.984;8.548;2023-04-06T06:55:06;11.93;;;6.97;;
32297;SDS011;18782;48.984;8.548;2023-04-06T06:57:35;7.75;;;5.53;;
32297;SDS011;18782;48.984;8.548;2023-04-06T07:00:03;10.02;;;4.35;;
32297;SDS011;18782;48.984;8.548;2023-04-06T07:02:33;8.30;;;4.63;;
32297;SDS011;18782;48.984;8.548;2023-04-06T07:05:02;5.38;;;4.10;;
32297;SDS011;18782;48.984;8.548;2023-04-06T07:07:50;8.20;;;4.50;;
32297;SDS011;18782;48.984;8.548;2023-04-06T07:10:18;7.68;;;4.50;;
32297;SDS011;18782;48.984;8.548;2023-04-06T07:12:46;8.90;;;4.50;;
32297;SDS011;18782;48.984;8.548;2023-04-06T07:15:13;6.50;;;4.70;;
32297;SDS011;18782;48.984;8.548;2023-04-06T07:17:43;7.28;;;4.85;;
32297;SDS011;18782;48.984;8.548;2023-04-06T07:20:12;6.32;;;4.35;;
32297;SDS011;18782;48.984;8.548;2023-04-06T07:22:41;6.90;;;4.60;;
32297;SDS011;18782;48.984;8.548;2023-04-06T07:25:10;7.53;;;4.90;;
32297;SDS011;18782;48.984;8.548;2023-04-06T07:27:40;5.95;;;4.18;;
32297;SDS011;18782;48.984;8.548;2023-04-06T07:30:08;7.43;;;4.28;;
32297;SDS011;18782;48.984;8.548;2023-04-06T07:32:36;6.57;;;4.25;;
32297;SDS011;18782;48.984;8.548;2023-04-06T07:35:06;7.13;;;4.38;;
32297;SDS011;18782;48.984;8.548;2023-04-06T07:37:34;6.40;;;4.18;;
32297;SDS011;18782;48.984;8.548;2023-04-06T07:40:02;7.40;;;4.45;;
32297;SDS011;18782;48.984;8.548;2023-04-06T07:42:30;7.72;;;4.65;;
32297;SDS011;18782;48.984;8.548;2023-04-06T07:44:59;5.75;;;3.90;;
32297;SDS011;18782;48.984;8.548;2023-04-06T07:47:27;6.43;;;3.72;;
32297;SDS011;18782;48.984;8.548;2023-04-06T07:49:55;6.82;;;4.53;;
32297;SDS011;18782;48.984;8.548;2023-04-06T07:52:24;18.88;;;8.32;;
32297;SDS011;18782;48.984;8.548;2023-04-06T07:54:52;18.88;;;7.97;;
32297;SDS011;18782;48.984;8.548;2023-04-06T07:57:20;9.82;;;4.95;;
32297;SDS011;18782;48.984;8.548;2023-04-06T07:59:48;5.72;;;3.88;;
32297;SDS011;18782;48.984;8.548;2023-04-06T08:02:15;5.13;;;3.58;;
32297;SDS011;18782;48.984;8.548;2023-04-06T08:04:43;7.00;;;3.95;;
32297;SDS011;18782;48.984;8.548;2023-04-06T08:07:11;6.88;;;4.18;;
32297;SDS011;18782;48.984;8.548;2023-04-06T08:09:41;9.63;;;5.40;;
32297;SDS011;18782;48.984;8.548;2023-04-06T08:12:08;10.32;;;5.47;;
32297;SDS011;18782;48.984;8.548;2023-04-06T08:14:36;5.70;;;3.55;;
32297;SDS011;18782;48.984;8.548;2023-04-06T08:17:04;5.07;;;3.15;;
32297;SDS011;18782;48.984;8.548;2023-04-06T08:19:32;5.60;;;3.88;;
32297;SDS011;18782;48.984;8.548;2023-04-06T08:22:00;5.22;;;3.22;;
32297;SDS011;18782;48.984;8.548;2023-04-06T08:24:28;5.38;;;3.70;;
32297;SDS011;18782;48.984;8.548;2023-04-06T08:26:59;4.45;;;3.22;;
32297;SDS011;18782;48.984;8.548;2023-04-06T08:29:27;6.22;;;3.72;;
32297;SDS011;18782;48.984;8.548;2023-04-06T08:31:55;6.28;;;3.83;;
32297;SDS011;18782;48.984;8.548;2023-04-06T08:34:24;6.22;;;3.80;;
32297;SDS011;18782;48.984;8.548;2023-04-06T08:36:52;5.05;;;3.67;;
32297;SDS011;18782;48.984;8.548;2023-04-06T08:39:19;6.35;;;4.07;;
32297;SDS011;18782;48.984;8.548;2023-04-06T08:41:51;8.52;;;3.97;;
32297;SDS011;18782;48.984;8.548;2023-04-06T08:44:24;6.28;;;4.15;;
32297;SDS011;18782;48.984;8.548;2023-04-06T08:46:52;4.90;;;3.70;;
32297;SDS011;18782;48.984;8.548;2023-04-06T08:49:20;5.82;;;3.63;;
32297;SDS011;18782;48.984;8.548;2023-04-06T08:51:49;6.68;;;4.15;;
32297;SDS011;18782;48.984;8.548;2023-04-06T08:54:17;4.70;;;3.25;;
32297;SDS011;18782;48.984;8.548;2023-04-06T08:56:44;5.00;;;3.80;;
32297;SDS011;18782;48.984;8.548;2023-04-06T08:59:14;8.63;;;3.72;;
32297;SDS011;18782;48.984;8.548;2023-04-06T09:01:43;8.10;;;3.97;;
32297;SDS011;18782;48.984;8.548;2023-04-06T09:04:12;5.05;;;3.38;;
32297;SDS011;18782;48.984;8.548;2023-04-06T09:06:41;8.02;;;4.07;;
32297;SDS011;18782;48.984;8.548;2023-04-06T09:09:10;5.97;;;3.88;;
32297;SDS011;18782;48.984;8.548;2023-04-06T09:11:42;6.80;;;3.85;;
32297;SDS011;18782;48.984;8.548;2023-04-06T09:14:11;5.40;;;3.80;;
32297;SDS011;18782;48.984;8.548;2023-04-06T09:16:39;5.90;;;3.80;;
32297;SDS011;18782;48.984;8.548;2023-04-06T09:19:09;5.65;;;3.75;;
32297;SDS011;18782;48.984;8.548;2023-04-06T09:21:37;7.97;;;4.68;;
32297;SDS011;18782;48.984;8.548;2023-04-06T09:24:06;6.22;;;4.07;;
32297;SDS011;18782;48.984;8.548;2023-04-06T09:26:44;5.78;;;4.18;;
32297;SDS011;18782;48.984;8.548;2023-04-06T09:29:21;6.18;;;3.65;;
32297;SDS011;18782;48.984;8.548;2023-04-06T09:31:50;5.75;;;3.90;;
32297;SDS011;18782;48.984;8.548;2023-04-06T09:34:22;5.72;;;3.90;;
32297;SDS011;18782;48.984;8.548;2023-04-06T09:36:50;7.97;;;3.90;;
32297;SDS011;18782;48.984;8.548;2023-04-06T09:39:20;5.60;;;3.80;;
32297;SDS011;18782;48.984;8.548;2023-04-06T09:41:49;7.93;;;3.78;;
32297;SDS011;18782;48.984;8.548;2023-04-06T09:44:18;5.32;;;3.78;;
32297;SDS011;18782;48.984;8.548;2023-04-06T09:46:46;5.93;;;3.88;;
32297;SDS011;18782;48.984;8.548;2023-04-06T09:49:27;9.63;;;3.63;;
32297;SDS011;18782;48.984;8.548;2023-04-06T09:51:58;5.85;;;3.90;;
32297;SDS011;18782;48.984;8.548;2023-04-06T09:54:28;7.40;;;3.75;;
32297;SDS011;18782;48.984;8.548;2023-04-06T09:56:58;5.95;;;3.55;;
32297;SDS011;18782;48.984;8.548;2023-04-06T09:59:33;5.00;;;3.72;;
32297;SDS011;18782;48.984;8.548;2023-04-06T10:02:06;5.20;;;3.53;;
32297;SDS011;18782;48.984;8.548;2023-04-06T10:04:43;6.38;;;3.97;;
32297;SDS011;18782;48.984;8.548;2023-04-06T10:07:17;9.82;;;3.78;;
32297;SDS011;18782;48.984;8.548;2023-04-06T10:09:45;5.40;;;3.72;;
32297;SDS011;18782;48.984;8.548;2023-04-06T10:12:14;7.47;;;4.45;;
32297;SDS011;18782;48.984;8.548;2023-04-06T10:14:42;7.18;;;4.05;;
32297;SDS011;18782;48.984;8.548;2023-04-06T10:17:11;7.13;;;4.65;;
32297;SDS011;18782;48.984;8.548;2023-04-06T10:19:41;6.57;;;4.50;;
32297;SDS011;18782;48.984;8.548;2023-04-06T10:22:18;6.05;;;4.20;;
32297;SDS011;18782;48.984;8.548;2023-04-06T10:24:53;9.10;;;4.55;;
32297;SDS011;18782;48.984;8.548;2023-04-06T10:27:27;7.00;;;4.38;;
32297;SDS011;18782;48.984;8.548;2023-04-06T10:30:00;5.25;;;3.83;;
32297;SDS011;18782;48.984;8.548;2023-04-06T10:32:32;8.52;;;4.35;;
32297;SDS011;18782;48.984;8.548;2023-04-06T10:35:09;6.78;;;4.43;;
32297;SDS011;18782;48.984;8.548;2023-04-06T10:37:50;6.53;;;4.50;;
32297;SDS011;18782;48.984;8.548;2023-04-06T10:40:19;6.07;;;4.45;;
32297;SDS011;18782;48.984;8.548;2023-04-06T10:42:48;5.78;;;4.30;;
32297;SDS011;18782;48.984;8.548;2023-04-06T10:45:20;6.13;;;4.00;;
32297;SDS011;18782;48.984;8.548;2023-04-06T10:47:50;6.38;;;4.40;;
32297;SDS011;18782;48.984;8.548;2023-04-06T10:50:22;5.47;;;4.50;;
32297;SDS011;18782;48.984;8.548;2023-04-06T10:52:58;5.38;;;4.60;;
32297;SDS011;18782;48.984;8.548;2023-04-06T10:55:27;6.00;;;4.30;;
32297;SDS011;18782;48.984;8.548;2023-04-06T10:57:56;7.13;;;4.57;;
32297;SDS011;18782;48.984;8.548;2023-04-06T11:00:24;7.35;;;4.57;;
32297;SDS011;18782;48.984;8.548;2023-04-06T11:03:08;6.03;;;4.50;;
32297;SDS011;18782;48.984;8.548;2023-04-06T11:05:37;6.05;;;4.25;;
32297;SDS011;18782;48.984;8.548;2023-04-06T11:08:05;5.78;;;4.22;;
32297;SDS011;18782;48.984;8.548;2023-04-06T11:10:33;7.40;;;5.75;;
32297;SDS011;18782;48.984;8.548;2023-04-06T11:13:00;7.20;;;4.78;;
32297;SDS011;18782;48.984;8.548;2023-04-06T11:15:33;7.47;;;4.70;;
32297;SDS011;18782;48.984;8.548;2023-04-06T11:18:04;6.97;;;4.78;;
32297;SDS011;18782;48.984;8.548;2023-04-06T11:20:32;7.85;;;5.13;;
32297;SDS011;18782;48.984;8.548;2023-04-06T11:23:01;6.03;;;4.70;;
32297;SDS011;18782;48.984;8.548;2023-04-06T11:25:30;6.55;;;4.97;;
32297;SDS011;18782;48.984;8.548;2023-04-06T11:27:58;8.45;;;4.75;;
32297;SDS011;18782;48.984;8.548;2023-04-06T11:30:26;7.22;;;4.88;;
32297;SDS011;18782;48.984;8.548;2023-04-06T11:33:00;7.20;;;4.80;;
32297;SDS011;18782;48.984;8.548;2023-04-06T11:35:28;7.00;;;4.57;;
32297;SDS011;18782;48.984;8.548;2023-04-06T11:37:59;5.85;;;3.92;;
32297;SDS011;18782;48.984;8.548;2023-04-06T11:40:31;7.67;;;4.20;;
32297;SDS011;18782;48.984;8.548;2023-04-06T11:42:59;7.65;;;4.10;;
32297;SDS011;18782;48.984;8.548;2023-04-06T11:45:27;7.03;;;4.50;;
32297;SDS011;18782;48.984;8.548;2023-04-06T11:47:55;5.78;;;4.38;;
32297;SDS011;18782;48.984;8.548;2023-04-06T11:50:25;5.93;;;4.85;;
32297;SDS011;18782;48.984;8.548;2023-04-06T11:52:59;7.28;;;5.35;;
32297;SDS011;18782;48.984;8.548;2023-04-06T11:55:36;7.38;;;5.15;;
32297;SDS011;18782;48.984;8.548;2023-04-06T11:58:05;7.15;;;5.07;;
32297;SDS011;18782;48.984;8.548;2023-04-06T12:00:33;5.63;;;4.93;;
32297;SDS011;18782;48.984;8.548;2023-04-06T12:03:03;6.00;;;5.00;;
32297;SDS011;18782;48.984;8.548;2023-04-06T12:05:32;6.53;;;4.63;;
32297;SDS011;18782;48.984;8.548;2023-04-06T12:08:00;6.63;;;4.53;;
32297;SDS011;18782;48.984;8.548;2023-04-06T12:10:30;6.50;;;4.18;;
32297;SDS011;18782;48.984;8.548;2023-04-06T12:12:58;7.75;;;4.50;;
32297;SDS011;18782;48.984;8.548;2023-04-06T12:15:26;7.10;;;4.28;;
32297;SDS011;18782;48.984;8.548;2023-04-06T12:17:54;5.03;;;3.95;;
32297;SDS011;18782;48.984;8.548;2023-04-06T12:20:21;7.40;;;4.30;;
32297;SDS011;18782;48.984;8.548;2023-04-06T12:22:52;5.40;;;3.95;;
32297;SDS011;18782;48.984;8.548;2023-04-06T12:25:20;7.38;;;4.95;;
32297;SDS011;18782;48.984;8.548;2023-04-06T12:27:49;8.05;;;4.68;;
32297;SDS011;18782;48.984;8.548;2023-04-06T12:30:17;5.10;;;4.35;;
32297;SDS011;18782;48.984;8.548;2023-04-06T12:32:45;6.50;;;4.72;;
32297;SDS011;18782;48.984;8.548;2023-04-06T12:35:16;5.57;;;4.18;;
32297;SDS011;18782;48.984;8.548;2023-04-06T12:37:44;7.43;;;4.53;;
32297;SDS011;18782;48.984;8.548;2023-04-06T12:40:12;6.65;;;4.28;;
32297;SDS011;18782;48.984;8.548;2023-04-06T12:42:41;4.72;;;4.22;;
32297;SDS011;18782;48.984;8.548;2023-04-06T12:45:10;6.82;;;4.88;;
32297;SDS011;18782;48.984;8.548;2023-04-06T12:47:38;5.70;;;4.68;;
32297;SDS011;18782;48.984;8.548;2023-04-06T12:50:06;6.35;;;4.95;;
32297;SDS011;18782;48.984;8.548;2023-04-06T12:52:34;6.10;;;4.78;;
32297;SDS011;18782;48.984;8.548;2023-04-06T12:55:03;7.28;;;5.32;;
32297;SDS011;18782;48.984;8.548;2023-04-06T12:57:32;7.15;;;5.53;;
32297;SDS011;18782;48.984;8.548;2023-04-06T12:59:59;5.57;;;4.45;;
32297;SDS011;18782;48.984;8.548;2023-04-06T13:02:29;6.78;;;4.93;;
32297;SDS011;18782;48.984;8.548;2023-04-06T13:04:58;6.18;;;4.72;;
32297;SDS011;18782;48.984;8.548;2023-04-06T13:07:25;7.50;;;4.70;;
32297;SDS011;18782;48.984;8.548;2023-04-06T13:09:53;4.90;;;4.07;;
32297;SDS011;18782;48.984;8.548;2023-04-06T13:12:21;6.32;;;4.80;;
32297;SDS011;18782;48.984;8.548;2023-04-06T13:14:49;5.47;;;3.95;;
32297;SDS011;18782;48.984;8.548;2023-04-06T13:17:18;5.70;;;4.70;;
32297;SDS011;18782;48.984;8.548;2023-04-06T13:19:48;5.70;;;4.43;;
32297;SDS011;18782;48.984;8.548;2023-04-06T13:22:16;6.35;;;4.07;;
32297;SDS011;18782;48.984;8.548;2023-04-06T13:24:44;6.13;;;4.90;;
32297;SDS011;18782;48.984;8.548;2023-04-06T13:27:12;8.55;;;5.40;;
32297;SDS011;18782;48.984;8.548;2023-04-06T13:29:40;6.88;;;5.10;;
32297;SDS011;18782;48.984;8.548;2023-04-06T13:32:07;7.90;;;5.70;;
32297;SDS011;18782;48.984;8.548;2023-04-06T13:34:36;6.55;;;5.55;;
32297;SDS011;18782;48.984;8.548;2023-04-06T13:37:05;7.93;;;6.00;;
32297;SDS011;18782;48.984;8.548;2023-04-06T13:39:33;7.50;;;5.20;;
32297;SDS011;18782;48.984;8.548;2023-04-06T13:42:01;7.20;;;5.05;;
32297;SDS011;18782;48.984;8.548;2023-04-06T13:44:29;5.32;;;4.47;;
32297;SDS011;18782;48.984;8.548;2023-04-06T13:46:57;5.53;;;4.28;;
32297;SDS011;18782;48.984;8.548;2023-04-06T13:49:25;7.30;;;3.92;;
32297;SDS011;18782;48.984;8.548;2023-04-06T13:51:53;5.32;;;3.88;;
32297;SDS011;18782;48.984;8.548;2023-04-06T13:54:22;5.45;;;4.30;;
32297;SDS011;18782;48.984;8.548;2023-04-06T13:56:51;5.85;;;3.60;;
32297;SDS011;18782;48.984;8.548;2023-04-06T13:59:18;4.72;;;3.92;;
32297;SDS011;18782;48.984;8.548;2023-04-06T14:01:47;5.85;;;3.78;;
32297;SDS011;18782;48.984;8.548;2023-04-06T14:04:15;6.22;;;3.78;;
32297;SDS011;18782;48.984;8.548;2023-04-06T14:06:44;4.95;;;3.58;;
32297;SDS011;18782;48.984;8.548;2023-04-06T14:09:11;4.43;;;3.70;;
32297;SDS011;18782;48.984;8.548;2023-04-06T14:11:40;6.65;;;4.30;;
32297;SDS011;18782;48.984;8.548;2023-04-06T14:14:08;5.50;;;4.10;;
32297;SDS011;18782;48.984;8.548;2023-04-06T14:16:36;5.40;;;3.80;;
32297;SDS011;18782;48.984;8.548;2023-04-06T14:19:04;6.25;;;4.32;;
32297;SDS011;18782;48.984;8.548;2023-04-06T14:21:32;5.93;;;4.07;;
32297;SDS011;18782;48.984;8.548;2023-04-06T14:23:59;6.05;;;4.05;;
32297;SDS011;18782;48.984;8.548;2023-04-06T14:26:27;4.80;;;3.80;;
32297;SDS011;18782;48.984;8.548;2023-04-06T14:28:56;6.28;;;4.13;;
32297;SDS011;18782;48.984;8.548;2023-04-06T14:31:26;5.25;;;4.00;;
32297;SDS011;18782;48.984;8.548;2023-04-06T14:33:53;5.50;;;4.43;;
32297;SDS011;18782;48.984;8.548;2023-04-06T14:36:21;6.20;;;3.67;;
32297;SDS011;18782;48.984;8.548;2023-04-06T14:38:49;5.40;;;3.78;;
32297;SDS011;18782;48.984;8.548;2023-04-06T14:41:17;4.88;;;3.35;;
32297;SDS011;18782;48.984;8.548;2023-04-06T14:43:45;6.45;;;3.97;;
32297;SDS011;18782;48.984;8.548;2023-04-06T14:46:15;5.40;;;3.65;;
32297;SDS011;18782;48.984;8.548;2023-04-06T14:48:43;4.70;;;3.05;;
32297;SDS011;18782;48.984;8.548;2023-04-06T14:51:11;3.78;;;2.83;;
32297;SDS011;18782;48.984;8.548;2023-04-06T14:53:39;4.45;;;3.10;;
32297;SDS011;18782;48.984;8.548;2023-04-06T14:56:08;5.07;;;3.42;;
32297;SDS011;18782;48.984;8.548;2023-04-06T14:58:36;5.50;;;3.67;;
32297;SDS011;18782;48.984;8.548;2023-04-06T15:01:04;5.47;;;3.13;;
32297;SDS011;18782;48.984;8.548;2023-04-06T15:03:33;5.75;;;3.47;;
32297;SDS011;18782;48.984;8.548;2023-04-06T15:06:01;6.05;;;3.67;;
32297;SDS011;18782;48.984;8.548;2023-04-06T15:08:30;5.63;;;3.00;;
32297;SDS011;18782;48.984;8.548;2023-04-06T15:11:06;6.05;;;4.00;;
32297;SDS011;18782;48.984;8.548;2023-04-06T15:13:33;6.75;;;3.53;;
32297;SDS011;18782;48.984;8.548;2023-04-06T15:16:01;5.93;;;3.63;;